Time;durP1;ratioP1;P1;durP2;ratioP2;P2;SDS_P1;SDS_P2;PMS_P1;PMS_P2;Temp;Humidity;BMP_temperature;BMP_pressure;BME280_temperature;BME280_humidity;BME280_pressure;Samples;Min_cycle;Max_cycle;Signal;HPM_P1;HPM_P2
2021/10/05 00:02:25;;;;;;;3.15;0.90;;;;;;;11.60;84.55;99824.06;5018915;28;20041;-69
2021/10/05 00:04:52;;;;;;;2.47;0.88;;;;;;;11.55;84.69;99827.91;5034774;28;20317;-69
2021/10/05 00:07:19;;;;;;;2.67;1.00;;;;;;;11.54;85.05;99826.22;5034567;28;20457;-73
2021/10/05 00:09:45;;;;;;;4.30;1.00;;;;;;;11.60;84.43;99816.06;5035810;28;20045;-70
2021/10/05 00:12:13;;;;;;;1.50;0.80;;;;;;;11.64;84.20;99820.19;5035702;28;20343;-73
2021/10/05 00:14:40;;;;;;;2.42;0.90;;;;;;;11.62;84.08;99814.13;5035790;28;20431;-70
2021/10/05 00:17:07;;;;;;;1.10;0.70;;;;;;;11.60;84.01;99814.22;5035517;28;20430;-69
2021/10/05 00:19:34;;;;;;;1.65;0.77;;;;;;;11.64;83.96;99807.69;5034571;28;20045;-71
2021/10/05 00:22:01;;;;;;;3.13;0.80;;;;;;;11.62;84.45;99798.06;5035412;28;20072;-73
2021/10/05 00:24:27;;;;;;;3.05;0.80;;;;;;;11.54;84.64;99786.13;5035292;28;20407;-70
2021/10/05 00:26:54;;;;;;;3.22;0.70;;;;;;;11.51;84.66;99797.00;5035385;28;20430;-71
2021/10/05 00:29:21;;;;;;;2.83;1.02;;;;;;;11.52;84.42;99779.16;5035328;28;20045;-74
2021/10/05 00:31:48;;;;;;;3.28;1.00;;;;;;;11.53;84.55;99775.53;5034124;28;20045;-68
2021/10/05 00:34:14;;;;;;;2.05;0.70;;;;;;;11.44;85.36;99779.69;5020514;28;20466;-72
2021/10/05 00:36:42;;;;;;;2.58;0.82;;;;;;;11.44;85.03;99771.69;5055223;28;20142;-73
2021/10/05 00:39:09;;;;;;;2.38;1.02;;;;;;;11.45;85.18;99775.22;5054109;28;20051;-71
2021/10/05 00:41:36;;;;;;;4.63;0.88;;;;;;;11.43;85.23;99767.31;5055179;28;20438;-72
2021/10/05 00:44:03;;;;;;;2.45;0.95;;;;;;;11.33;85.18;99752.91;5054019;28;20328;-71
2021/10/05 00:46:33;;;;;;;3.75;0.77;;;;;;;11.39;84.74;99758.66;5053686;28;20095;-72
2021/10/05 00:49:01;;;;;;;2.45;0.80;;;;;;;11.49;84.65;99766.88;5055092;28;20060;-72
2021/10/05 00:51:28;;;;;;;5.35;1.20;;;;;;;11.49;84.51;99771.38;5054972;28;20045;-70
2021/10/05 00:53:56;;;;;;;1.80;0.80;;;;;;;11.46;84.55;99769.78;5053985;28;20445;-69
2021/10/05 00:56:23;;;;;;;3.05;0.90;;;;;;;11.48;84.60;99759.81;5055207;28;20051;-69
2021/10/05 00:58:50;;;;;;;4.40;1.20;;;;;;;11.45;85.01;99754.72;5053773;28;20041;-72
2021/10/05 01:01:18;;;;;;;2.67;0.75;;;;;;;11.46;84.77;99753.75;5037209;28;20052;-74
2021/10/05 01:03:45;;;;;;;2.33;0.80;;;;;;;11.47;84.63;99755.44;5070522;28;20136;-70
2021/10/05 01:06:11;;;;;;;1.73;0.90;;;;;;;11.43;85.16;99742.41;5053662;28;20049;-74
2021/10/05 01:08:38;;;;;;;3.67;0.80;;;;;;;11.32;85.35;99728.00;5055006;28;20053;-71
2021/10/05 01:11:07;;;;;;;1.52;0.60;;;;;;;11.41;85.09;99742.53;5040297;28;20102;-71
2021/10/05 01:13:34;;;;;;;4.15;0.80;;;;;;;11.44;84.89;99739.63;5058930;28;20456;-73
2021/10/05 01:16:01;;;;;;;3.15;0.90;;;;;;;11.44;84.44;99736.94;5058895;28;20040;-70
2021/10/05 01:18:28;;;;;;;2.00;0.77;;;;;;;11.45;84.53;99732.47;5059054;28;20290;-71
2021/10/05 01:20:56;;;;;;;1.35;0.68;;;;;;;11.45;84.65;99730.66;5057704;28;20458;-71
2021/10/05 01:23:23;;;;;;;1.50;0.60;;;;;;;11.45;84.22;99714.63;5058718;28;20048;-72
2021/10/05 01:25:50;;;;;;;3.08;0.80;;;;;;;11.50;84.16;99712.44;5058494;28;20426;-71
2021/10/05 01:28:19;;;;;;;2.45;0.80;;;;;;;11.47;84.58;99709.16;5058678;28;20049;-72
2021/10/05 01:30:46;;;;;;;3.35;1.10;;;;;;;11.44;84.13;99694.19;5057476;28;20053;-72
2021/10/05 01:33:14;;;;;;;3.75;0.90;;;;;;;11.48;84.32;99701.03;5058688;28;20044;-73
2021/10/05 01:35:41;;;;;;;3.25;0.60;;;;;;;11.49;83.72;99697.38;5044019;28;20038;-73
2021/10/05 01:38:08;;;;;;;1.23;0.80;;;;;;;11.50;83.88;99693.75;5037304;28;20083;-70
2021/10/05 01:40:35;;;;;;;2.85;1.00;;;;;;;11.55;83.45;99693.41;5038499;28;20072;-71
2021/10/05 01:43:02;;;;;;;0.50;0.43;;;;;;;11.53;83.71;99672.16;5038440;28;20088;-71
2021/10/05 01:45:30;;;;;;;3.42;0.80;;;;;;;11.55;83.48;99664.88;5038420;28;20315;-73
2021/10/05 01:47:57;;;;;;;2.15;0.70;;;;;;;11.57;83.56;99669.25;5037006;28;20057;-74
2021/10/05 01:50:25;;;;;;;4.57;0.88;;;;;;;11.57;83.40;99663.91;5038434;28;20048;-72
2021/10/05 01:52:53;;;;;;;2.60;0.70;;;;;;;11.58;83.36;99655.78;5037084;28;20065;-70
2021/10/05 01:55:21;;;;;;;3.45;0.70;;;;;;;11.60;83.22;99653.00;5037271;28;20331;-72
2021/10/05 01:57:48;;;;;;;1.33;0.70;;;;;;;11.55;83.05;99642.63;5044872;28;20048;-72
2021/10/05 02:00:15;;;;;;;3.75;0.93;;;;;;;11.54;83.23;99646.28;5057119;28;20103;-73
2021/10/05 02:02:42;;;;;;;2.20;1.00;;;;;;;11.54;83.11;99640.94;5058011;28;20048;-72
2021/10/05 02:05:09;;;;;;;1.15;0.70;;;;;;;11.53;83.26;99640.09;5057053;28;20037;-70
2021/10/05 02:07:37;;;;;;;5.45;1.27;;;;;;;11.56;83.28;99636.34;5056907;28;20106;-72
2021/10/05 02:10:07;;;;;;;2.10;0.70;;;;;;;11.51;83.27;99628.63;5058080;28;20099;-73
2021/10/05 02:12:34;;;;;;;0.80;0.73;;;;;;;11.51;83.33;99620.63;5057849;28;20055;-72
2021/10/05 02:15:00;;;;;;;3.50;0.70;;;;;;;11.50;83.27;99623.44;5058251;28;20334;-72
2021/10/05 02:17:27;;;;;;;2.03;1.10;;;;;;;11.52;83.10;99621.50;5063962;28;20091;-70
2021/10/05 02:19:54;;;;;;;4.88;0.77;;;;;;;11.50;83.43;99618.91;5072521;28;20108;-71
2021/10/05 02:22:21;;;;;;;2.92;0.55;;;;;;;11.45;83.68;99618.44;5069768;28;20060;-70
2021/10/05 02:24:48;;;;;;;3.53;0.65;;;;;;;11.47;83.58;99613.81;5058369;28;20414;-70
2021/10/05 02:27:19;;;;;;;1.50;0.77;;;;;;;11.48;83.34;99615.53;5056668;28;20328;-69
2021/10/05 02:29:46;;;;;;;2.15;0.63;;;;;;;11.41;83.38;99592.88;5058432;28;20045;-69
2021/10/05 02:32:14;;;;;;;4.63;0.90;;;;;;;11.39;83.83;99595.66;5057536;28;20055;-71
2021/10/05 02:34:42;;;;;;;6.03;0.85;;;;;;;11.39;84.21;99600.16;5051467;28;20080;-73
2021/10/05 02:37:09;;;;;;;2.35;0.77;;;;;;;11.40;83.52;99591.19;5037938;28;20045;-71
2021/10/05 02:39:36;;;;;;;2.58;0.80;;;;;;;11.37;83.93;99586.91;5036580;28;20049;-72
2021/10/05 02:42:04;;;;;;;1.20;0.70;;;;;;;11.37;84.22;99591.41;5037389;28;20052;-74
2021/10/05 02:44:31;;;;;;;3.15;0.90;;;;;;;11.35;83.84;99583.50;5037310;28;20104;-70
2021/10/05 02:46:57;;;;;;;2.40;0.95;;;;;;;11.30;84.15;99568.78;5048054;28;20033;-69
2021/10/05 02:49:24;;;;;;;3.75;0.85;;;;;;;11.34;84.05;99567.59;5056739;28;20071;-70
2021/10/05 02:51:51;;;;;;;3.85;1.75;;;;;;;11.30;84.40;99569.63;5056781;28;20041;-71
2021/10/05 02:54:18;;;;;;;3.78;0.90;;;;;;;11.28;84.00;99566.22;5056716;28;20060;-72
2021/10/05 02:56:45;;;;;;;4.80;0.93;;;;;;;11.29;83.91;99575.94;5056690;28;20029;-71
2021/10/05 02:59:13;;;;;;;4.88;0.98;;;;;;;11.27;84.18;99560.03;5056165;28;20052;-71
2021/10/05 03:01:40;;;;;;;4.18;1.10;;;;;;;11.20;84.59;99552.56;5023135;28;20298;-70
2021/10/05 03:04:07;;;;;;;2.58;1.00;;;;;;;11.26;84.13;99552.13;5055803;28;20045;-70
2021/10/05 03:06:34;;;;;;;5.18;1.15;;;;;;;11.21;84.31;99543.59;5056841;28;20063;-72
2021/10/05 03:09:02;;;;;;;1.95;1.05;;;;;;;11.19;84.65;99542.84;5072393;28;20403;-72
2021/10/05 03:11:29;;;;;;;2.97;0.80;;;;;;;11.21;84.29;99540.91;5056709;28;20392;-70
2021/10/05 03:13:56;;;;;;;5.18;0.80;;;;;;;11.18;84.62;99541.16;5055912;28;20041;-72
2021/10/05 03:16:22;;;;;;;1.88;0.90;;;;;;;11.26;84.00;99542.28;5056643;28;20119;-70
2021/10/05 03:18:49;;;;;;;5.15;1.00;;;;;;;11.30;83.70;99534.03;5056498;28;20127;-72
2021/10/05 03:21:16;;;;;;;3.85;1.10;;;;;;;11.30;83.83;99523.34;5056784;28;20106;-72
2021/10/05 03:23:43;;;;;;;3.03;0.93;;;;;;;11.30;83.57;99518.88;5055737;28;20072;-71
2021/10/05 03:26:10;;;;;;;2.33;1.10;;;;;;;11.31;83.43;99517.03;5056421;28;20049;-69
2021/10/05 03:28:37;;;;;;;4.28;1.10;;;;;;;11.37;82.95;99514.78;5056449;28;20438;-71
2021/10/05 03:31:04;;;;;;;2.10;0.82;;;;;;;11.33;83.17;99512.47;5056289;28;20473;-70
2021/10/05 03:33:30;;;;;;;4.75;0.98;;;;;;;11.35;83.21;99513.19;5055257;28;20055;-73
2021/10/05 03:35:57;;;;;;;3.17;0.82;;;;;;;11.27;83.29;99501.25;5056493;28;20051;-71
2021/10/05 03:38:24;;;;;;;2.55;1.20;;;;;;;11.30;83.29;99504.66;5055068;28;20084;-71
2021/10/05 03:40:53;;;;;;;2.65;0.80;;;;;;;11.33;83.25;99494.59;5055352;28;20056;-72
2021/10/05 03:43:20;;;;;;;2.95;0.82;;;;;;;11.26;83.62;99494.22;5055041;28;20040;-72
2021/10/05 03:45:47;;;;;;;2.85;0.60;;;;;;;11.24;83.81;99495.28;5055681;28;20045;-71
2021/10/05 03:48:14;;;;;;;4.55;1.00;;;;;;;11.26;83.63;99496.88;5056182;28;20118;-71
2021/10/05 03:50:42;;;;;;;3.83;0.98;;;;;;;11.26;83.42;99486.19;5050603;28;20049;-72
2021/10/05 03:53:09;;;;;;;1.55;0.75;;;;;;;11.21;83.59;99479.47;5036046;28;20041;-70
2021/10/05 03:55:36;;;;;;;2.53;1.15;;;;;;;11.24;83.60;99484.59;5039184;28;20034;-71
2021/10/05 03:58:02;;;;;;;4.80;1.20;;;;;;;11.21;83.83;99484.81;5046129;28;20053;-73
2021/10/05 04:00:29;;;;;;;1.95;0.70;;;;;;;11.16;84.18;99482.50;5019188;28;20037;-72
2021/10/05 04:02:58;;;;;;;3.00;0.90;;;;;;;11.21;83.93;99490.16;5055833;28;20083;-70
2021/10/05 04:05:29;;;;;;;2.38;0.80;;;;;;;11.21;83.62;99487.50;5052171;28;20108;-70
2021/10/05 04:07:55;;;;;;;3.80;0.98;;;;;;;11.24;83.58;99489.94;5052995;28;20417;-70
2021/10/05 04:10:22;;;;;;;4.40;1.02;;;;;;;11.22;83.74;99489.22;5054449;28;20045;-70
2021/10/05 04:12:50;;;;;;;2.97;1.10;;;;;;;11.21;83.79;99479.47;5054435;28;20049;-69
2021/10/05 04:15:17;;;;;;;5.38;1.20;;;;;;;11.19;84.18;99471.59;5037842;28;20067;-69
2021/10/05 04:17:43;;;;;;;5.32;0.90;;;;;;;11.14;84.23;99468.41;5055545;28;20107;-69
2021/10/05 04:20:11;;;;;;;3.67;0.90;;;;;;;11.12;83.97;99451.66;5053400;28;20043;-70
2021/10/05 04:22:38;;;;;;;4.15;0.90;;;;;;;11.13;84.20;99454.19;5053930;28;20099;-69
2021/10/05 04:25:06;;;;;;;2.67;0.95;;;;;;;11.12;84.31;99449.81;5054551;28;20123;-70
2021/10/05 04:27:34;;;;;;;4.03;0.98;;;;;;;11.16;83.90;99439.75;5055235;28;20037;-69
2021/10/05 04:30:03;;;;;;;2.80;0.90;;;;;;;11.17;83.93;99446.81;5054016;28;20107;-70
2021/10/05 04:32:30;;;;;;;3.38;0.95;;;;;;;11.17;83.69;99441.47;5070781;28;20049;-69
2021/10/05 04:34:57;;;;;;;5.10;1.00;;;;;;;11.20;83.54;99430.56;5054089;28;20045;-70
2021/10/05 04:37:24;;;;;;;2.83;1.00;;;;;;;11.23;83.71;99437.50;5055783;28;20045;-69
2021/10/05 04:39:51;;;;;;;3.92;0.80;;;;;;;11.24;83.30;99432.00;5055884;28;20045;-69
2021/10/05 04:42:18;;;;;;;4.63;0.80;;;;;;;11.18;83.26;99419.16;5055023;28;20511;-69
2021/10/05 04:44:45;;;;;;;4.78;1.00;;;;;;;11.25;83.46;99422.19;5058587;28;20044;-69
2021/10/05 04:47:11;;;;;;;1.70;0.77;;;;;;;11.30;83.09;99419.16;5062056;28;20044;-70
2021/10/05 04:49:38;;;;;;;3.50;1.08;;;;;;;11.31;82.43;99407.50;5060131;28;20080;-70
2021/10/05 04:52:05;;;;;;;2.75;1.25;;;;;;;11.30;82.85;99411.16;5054800;28;20041;-69
2021/10/05 04:54:32;;;;;;;1.77;0.95;;;;;;;11.32;82.74;99410.06;5054912;28;20052;-68
2021/10/05 04:56:59;;;;;;;3.83;1.00;;;;;;;11.26;82.80;99403.38;5052105;28;20044;-69
2021/10/05 04:59:26;;;;;;;2.92;1.10;;;;;;;11.24;83.22;99404.47;5053404;28;20044;-70
2021/10/05 05:01:53;;;;;;;4.22;0.80;;;;;;;11.24;82.96;99397.28;5053200;28;20059;-68
2021/10/05 05:04:20;;;;;;;1.75;0.98;;;;;;;11.21;83.48;99392.19;5054527;28;20112;-69
2021/10/05 05:06:47;;;;;;;5.30;0.80;;;;;;;11.19;82.99;99386.13;5052166;28;20107;-68
2021/10/05 05:09:14;;;;;;;1.77;1.05;;;;;;;11.21;83.04;99394.00;5052552;28;20048;-69
2021/10/05 05:11:40;;;;;;;6.43;1.23;;;;;;;11.18;82.89;99372.88;5068552;28;20049;-69
2021/10/05 05:14:08;;;;;;;2.33;1.63;;;;;;;11.22;82.95;99380.53;5052064;28;20053;-68
2021/10/05 05:16:36;;;;;;;2.53;0.93;;;;;;;11.13;83.35;99375.91;5051908;28;20041;-68
2021/10/05 05:19:05;;;;;;;2.90;1.05;;;;;;;11.23;82.86;99386.75;5039391;28;20505;-69
2021/10/05 05:21:32;;;;;;;4.00;1.10;;;;;;;11.18;82.88;99379.09;5033799;28;20041;-68
2021/10/05 05:23:59;;;;;;;3.10;1.00;;;;;;;11.22;82.45;99375.19;5049255;28;20125;-69
2021/10/05 05:26:26;;;;;;;6.03;1.23;;;;;;;11.22;82.26;99374.38;5054485;28;20045;-70
2021/10/05 05:28:55;;;;;;;1.77;0.90;;;;;;;11.22;81.99;99369.03;5037125;28;20048;-69
2021/10/05 05:31:22;;;;;;;5.35;0.80;;;;;;;11.22;82.55;99364.50;5053248;28;20076;-68
2021/10/05 05:33:49;;;;;;;3.10;0.93;;;;;;;11.25;82.23;99363.44;5053414;28;20100;-68
2021/10/05 05:36:19;;;;;;;1.30;0.88;;;;;;;11.15;82.80;99363.28;5040649;28;20037;-71
2021/10/05 05:38:46;;;;;;;2.08;1.08;;;;;;;11.16;82.39;99353.47;5037842;28;20055;-71
2021/10/05 05:41:12;;;;;;;3.75;1.23;;;;;;;11.06;82.36;99335.44;5020577;28;20516;-69
2021/10/05 05:43:39;;;;;;;2.40;1.20;;;;;;;11.14;82.44;99342.88;5055482;28;20044;-69
2021/10/05 05:46:06;;;;;;;1.50;1.10;;;;;;;11.17;82.38;99350.66;5054042;28;20049;-70
2021/10/05 05:48:33;;;;;;;8.98;1.40;;;;;;;11.16;82.46;99343.63;5035103;28;20057;-70
2021/10/05 05:51:00;;;;;;;5.70;2.58;;;;;;;11.13;82.90;99349.19;5052791;28;20059;-69
2021/10/05 05:53:27;;;;;;;2.58;1.40;;;;;;;11.09;82.63;99347.72;5043307;28;20057;-70
2021/10/05 05:55:55;;;;;;;3.78;1.17;;;;;;;11.05;83.00;99351.63;5053223;28;20036;-69
2021/10/05 05:58:23;;;;;;;5.78;1.40;;;;;;;11.00;83.39;99350.13;5058217;28;20119;-69
2021/10/05 06:00:50;;;;;;;2.30;1.15;;;;;;;10.96;83.80;99340.63;5043616;28;20347;-71
2021/10/05 06:03:17;;;;;;;4.40;1.50;;;;;;;11.00;83.46;99334.13;5057689;28;20045;-72
2021/10/05 06:05:44;;;;;;;4.60;1.23;;;;;;;10.95;83.53;99328.25;5072929;28;20072;-72
2021/10/05 06:08:11;;;;;;;1.98;1.55;;;;;;;10.93;83.75;99332.88;5046773;28;20039;-72
2021/10/05 06:10:39;;;;;;;3.17;1.50;;;;;;;10.93;83.80;99335.56;5056446;28;20104;-73
2021/10/05 06:13:06;;;;;;;2.35;1.70;;;;;;;10.91;83.96;99350.84;5056095;28;20051;-75
2021/10/05 06:15:34;;;;;;;2.60;1.48;;;;;;;10.90;83.50;99333.09;5057477;28;20052;-75
2021/10/05 06:18:02;;;;;;;4.07;1.60;;;;;;;10.96;83.79;99337.97;5057846;28;20045;-70
2021/10/05 06:20:29;;;;;;;3.35;1.50;;;;;;;10.95;83.64;99330.09;5042570;28;20091;-70
2021/10/05 06:22:57;;;;;;;4.30;1.73;;;;;;;10.99;83.66;99339.56;5020659;28;20072;-70
2021/10/05 06:25:27;;;;;;;4.40;1.80;;;;;;;10.97;83.90;99339.69;5037547;28;20419;-69
2021/10/05 06:27:56;;;;;;;4.45;1.65;;;;;;;10.94;84.05;99341.72;5042045;28;20041;-69
2021/10/05 06:30:25;;;;;;;5.70;1.65;;;;;;;10.96;83.87;99335.31;5057476;28;20099;-69
2021/10/05 06:32:54;;;;;;;7.47;2.58;;;;;;;10.90;84.09;99325.09;5057299;28;20450;-69
2021/10/05 06:35:26;;;;;;;7.38;2.00;;;;;;;10.83;84.30;99319.38;5057356;28;20136;-69
2021/10/05 06:37:54;;;;;;;3.83;1.77;;;;;;;10.89;84.34;99330.56;5055296;28;20045;-69
2021/10/05 06:40:27;;;;;;;2.70;1.60;;;;;;;10.90;84.69;99332.25;5056371;28;20068;-69
2021/10/05 06:42:54;;;;;;;3.70;1.85;;;;;;;10.82;84.84;99320.34;5055683;28;20045;-69
2021/10/05 06:45:21;;;;;;;4.40;1.85;;;;;;;10.91;84.67;99337.50;5046579;28;20046;-69
2021/10/05 06:47:48;;;;;;;4.90;1.98;;;;;;;10.95;84.18;99333.59;5036437;28;20060;-69
2021/10/05 06:50:16;;;;;;;5.63;2.10;;;;;;;10.94;84.52;99323.91;5036943;28;20446;-69
2021/10/05 06:52:43;;;;;;;4.18;1.55;;;;;;;10.96;84.23;99327.28;5036292;28;20378;-69
2021/10/05 06:55:11;;;;;;;8.18;1.98;;;;;;;10.94;84.17;99323.91;5035248;28;20045;-69
2021/10/05 06:57:38;;;;;;;5.72;1.90;;;;;;;10.99;84.18;99326.22;5041603;28;20041;-69
2021/10/05 07:00:11;;;;;;;2.40;1.60;;;;;;;11.10;83.30;99325.38;5052309;28;20123;-69
2021/10/05 07:02:43;;;;;;;2.58;1.58;;;;;;;11.20;83.29;99323.72;5043233;28;20057;-69
2021/10/05 07:05:11;;;;;;;2.95;1.48;;;;;;;11.26;83.45;99323.25;5038421;28;20045;-70
2021/10/05 07:07:39;;;;;;;4.07;2.00;;;;;;;11.32;82.54;99316.56;5035536;28;20047;-70
2021/10/05 07:10:09;;;;;;;4.55;1.55;;;;;;;11.40;82.10;99319.50;5042517;28;20104;-68
2021/10/05 07:12:36;;;;;;;8.55;1.67;;;;;;;11.48;81.78;99305.53;5036877;28;20076;-70
2021/10/05 07:15:04;;;;;;;7.57;2.88;;;;;;;11.51;82.74;99305.28;5036738;28;20049;-68
2021/10/05 07:17:32;;;;;;;3.53;1.48;;;;;;;11.64;81.71;99293.63;5036913;28;20050;-69
2021/10/05 07:19:59;;;;;;;4.53;1.23;;;;;;;11.72;81.27;99290.34;5036712;28;20045;-69
2021/10/05 07:22:26;;;;;;;4.35;1.60;;;;;;;11.79;81.15;99291.56;5036905;28;20048;-70
2021/10/05 07:24:53;;;;;;;2.35;1.50;;;;;;;11.80;80.63;99279.88;5040569;28;20075;-69
2021/10/05 07:27:20;;;;;;;4.93;1.50;;;;;;;11.88;80.48;99279.28;5045408;28;20056;-69
2021/10/05 07:29:47;;;;;;;6.43;1.88;;;;;;;11.88;81.41;99265.91;5061765;28;20053;-69
2021/10/05 07:32:14;;;;;;;3.38;1.42;;;;;;;11.91;80.78;99273.66;5037121;28;20366;-69
2021/10/05 07:34:42;;;;;;;8.45;1.65;;;;;;;11.89;81.19;99262.25;5041640;28;20045;-70
2021/10/05 07:37:10;;;;;;;1.88;1.40;;;;;;;12.05;80.84;99278.78;5056441;28;20060;-69
2021/10/05 07:39:38;;;;;;;2.85;1.15;;;;;;;12.16;80.19;99287.75;5056332;28;20429;-69
2021/10/05 07:42:05;;;;;;;4.53;1.48;;;;;;;12.20;80.69;99274.00;5056201;28;20053;-69
2021/10/05 07:44:33;;;;;;;5.72;1.40;;;;;;;12.24;81.08;99271.91;5056288;28;20128;-70
2021/10/05 07:47:01;;;;;;;5.75;1.73;;;;;;;12.26;81.09;99269.97;5055946;28;20160;-70
2021/10/05 07:49:28;;;;;;;5.75;1.45;;;;;;;12.30;81.14;99263.38;5056057;28;20087;-68
2021/10/05 07:51:54;;;;;;;3.72;1.45;;;;;;;12.41;80.46;99267.00;5055990;28;20048;-70
2021/10/05 07:54:21;;;;;;;3.67;1.63;;;;;;;12.39;81.10;99260.91;5055958;28;20430;-69
2021/10/05 07:56:48;;;;;;;1.90;1.20;;;;;;;12.50;81.11;99258.22;5056172;28;20346;-69
2021/10/05 07:59:15;;;;;;;3.58;1.25;;;;;;;12.60;80.06;99253.75;5038297;28;20069;-69
2021/10/05 08:01:48;;;;;;;4.15;1.42;;;;;;;12.63;80.63;99248.16;5055886;28;20110;-69
2021/10/05 08:04:15;;;;;;;3.65;1.30;;;;;;;12.66;80.69;99249.75;5054722;28;20445;-69
2021/10/05 08:06:43;;;;;;;6.00;1.65;;;;;;;12.69;80.52;99237.94;5055778;28;20045;-69
2021/10/05 08:09:13;;;;;;;5.72;1.50;;;;;;;12.76;80.12;99239.94;5055683;28;20146;-68
2021/10/05 08:11:44;;;;;;;3.47;1.42;;;;;;;12.84;79.62;99233.94;5037955;28;20388;-68
2021/10/05 08:14:11;;;;;;;3.67;1.10;;;;;;;12.89;79.62;99229.03;5035645;28;20385;-68
2021/10/05 08:16:38;;;;;;;7.10;1.38;;;;;;;12.92;79.97;99222.56;5035860;28;20375;-69
2021/10/05 08:19:05;;;;;;;3.95;1.30;;;;;;;12.97;80.72;99222.16;5035499;28;20056;-69
2021/10/05 08:21:33;;;;;;;3.15;1.25;;;;;;;13.02;80.62;99210.06;5034362;28;20446;-69
2021/10/05 08:23:59;;;;;;;3.13;1.23;;;;;;;13.12;79.90;99209.25;5035391;28;20342;-70
2021/10/05 08:26:27;;;;;;;2.83;1.52;;;;;;;13.20;80.29;99211.28;5034230;28;20049;-69
2021/10/05 08:28:54;;;;;;;3.85;1.25;;;;;;;13.26;80.64;99203.56;5035326;28;20077;-69
2021/10/05 08:31:20;;;;;;;4.82;1.30;;;;;;;13.33;80.49;99184.28;5040031;28;20053;-69
2021/10/05 08:33:48;;;;;;;7.55;1.58;;;;;;;13.36;80.81;99184.84;5042136;28;20064;-69
2021/10/05 08:36:18;;;;;;;3.70;1.20;;;;;;;13.45;80.30;99180.47;5051602;28;20052;-69
2021/10/05 08:38:45;;;;;;;3.67;1.33;;;;;;;13.48;79.70;99172.22;5053744;28;20438;-68
2021/10/05 08:41:13;;;;;;;4.70;1.48;;;;;;;13.58;79.43;99183.78;5052283;28;20099;-69
2021/10/05 08:43:44;;;;;;;12.77;2.40;;;;;;;13.65;79.41;99184.09;5038036;28;20055;-69
2021/10/05 08:46:11;;;;;;;4.15;1.40;;;;;;;13.69;79.27;99182.81;5054101;28;20112;-69
2021/10/05 08:48:39;;;;;;;5.65;1.40;;;;;;;13.80;80.08;99181.00;5054683;28;20056;-69
2021/10/05 08:51:06;;;;;;;7.85;2.50;;;;;;;13.85;79.33;99174.25;5054211;28;20049;-69
2021/10/05 08:53:38;;;;;;;4.20;1.40;;;;;;;13.93;79.38;99176.22;5055049;28;20373;-69
2021/10/05 08:56:07;;;;;;;4.90;1.40;;;;;;;13.95;79.23;99174.25;5054899;28;20124;-69
2021/10/05 08:58:35;;;;;;;6.53;1.60;;;;;;;14.01;78.56;99169.31;5035125;28;20092;-69
2021/10/05 09:01:11;;;;;;;4.13;1.50;;;;;;;14.03;78.21;99152.09;5034059;28;20052;-69
2021/10/05 09:03:46;;;;;;;8.02;2.00;;;;;;;14.17;78.45;99155.34;5035022;28;20053;-69
2021/10/05 09:06:14;;;;;;;7.30;1.58;;;;;;;14.21;77.98;99154.06;5047489;28;20060;-69
2021/10/05 09:08:43;;;;;;;4.32;1.40;;;;;;;14.28;76.99;99151.66;5054710;28;20107;-69
2021/10/05 09:11:12;;;;;;;4.45;1.58;;;;;;;14.34;77.39;99146.56;5054801;28;20045;-69
2021/10/05 09:13:42;;;;;;;2.60;1.40;;;;;;;14.36;76.83;99135.69;5053949;28;20377;-69
2021/10/05 09:16:19;;;;;;;4.05;1.50;;;;;;;14.34;75.82;99119.72;5053550;28;20071;-69
2021/10/05 09:18:58;;;;;;;3.63;1.45;;;;;;;14.45;76.60;99134.84;5054627;28;20461;-69
2021/10/05 09:21:33;;;;;;;3.92;1.83;;;;;;;14.48;76.13;99114.88;5053630;28;20049;-69
2021/10/05 09:24:06;;;;;;;5.47;1.80;;;;;;;14.56;77.08;99103.44;5054727;28;20045;-69
2021/10/05 09:26:54;;;;;;;4.22;1.60;;;;;;;14.63;76.44;99104.53;5054603;28;20055;-69
2021/10/05 09:29:29;;;;;;;4.20;1.27;;;;;;;14.73;75.42;99094.63;5054488;28;20103;-69
2021/10/05 09:32:00;;;;;;;8.98;1.88;;;;;;;14.78;74.67;99078.09;5055578;28;20430;-69
2021/10/05 09:35:00;;;;;;;4.95;1.83;;;;;;;14.84;74.89;99074.81;5052482;28;20045;-69
2021/10/05 09:37:35;;;;;;;5.05;1.80;;;;;;;14.99;75.12;99068.94;5062073;28;20091;-69
2021/10/05 09:40:07;;;;;;;6.05;1.30;;;;;;;15.05;74.17;99068.34;5057477;28;20202;-69
2021/10/05 09:42:36;;;;;;;3.80;1.65;;;;;;;15.16;74.02;99060.06;5045811;28;20065;-70
2021/10/05 09:45:09;;;;;;;3.20;1.30;;;;;;;15.18;73.80;99067.97;5044790;28;20052;-70
2021/10/05 09:47:37;;;;;;;5.55;1.67;;;;;;;15.27;73.71;99060.84;5055000;28;20048;-70
2021/10/05 09:50:11;;;;;;;5.03;1.30;;;;;;;15.30;73.05;99047.09;5039697;28;20057;-70
2021/10/05 09:52:41;;;;;;;5.57;1.75;;;;;;;15.39;73.21;99048.03;5039597;28;20046;-71
2021/10/05 09:55:08;;;;;;;3.65;1.55;;;;;;;15.45;72.68;99053.66;5044384;28;20049;-69
2021/10/05 09:57:35;;;;;;;4.75;1.30;;;;;;;15.59;72.13;99060.34;5043320;28;20091;-70
2021/10/05 10:00:06;;;;;;;1.65;1.00;;;;;;;15.66;72.07;99048.97;5038261;28;20323;-70
2021/10/05 10:02:42;;;;;;;4.88;1.70;;;;;;;15.78;72.24;99036.97;5038286;28;20331;-71
2021/10/05 10:05:12;;;;;;;6.05;1.77;;;;;;;15.93;71.69;99052.59;5037065;28;20076;-69
2021/10/05 10:07:41;;;;;;;4.95;1.50;;;;;;;15.90;70.49;99034.88;5036944;28;20128;-69
2021/10/05 10:10:13;;;;;;;9.68;1.75;;;;;;;15.97;70.14;99029.75;5038415;28;20056;-69
2021/10/05 10:12:50;;;;;;;7.20;1.30;;;;;;;15.94;71.12;99028.22;5038120;28;20049;-69
2021/10/05 10:15:18;;;;;;;3.13;1.55;;;;;;;16.07;70.88;99019.72;5037999;28;20077;-69
2021/10/05 10:17:46;;;;;;;4.23;1.50;;;;;;;16.11;69.71;99015.72;5038311;28;20069;-70
2021/10/05 10:20:25;;;;;;;7.22;1.65;;;;;;;16.18;69.74;99026.69;5037932;28;20050;-70
2021/10/05 10:22:54;;;;;;;3.17;1.23;;;;;;;16.27;70.25;99030.28;5037910;28;20045;-69
2021/10/05 10:25:33;;;;;;;4.88;1.55;;;;;;;16.30;68.50;99032.69;5037939;28;20148;-69
2021/10/05 10:28:13;;;;;;;5.47;1.15;;;;;;;16.46;68.96;99028.38;5036481;28;20100;-69
2021/10/05 10:30:55;;;;;;;5.05;1.48;;;;;;;16.36;67.27;99025.81;5036527;28;20049;-69
2021/10/05 10:33:23;;;;;;;2.03;1.27;;;;;;;16.45;67.68;99042.88;5037718;28;20042;-69
2021/10/05 10:35:58;;;;;;;4.60;1.35;;;;;;;16.62;68.04;99033.84;5052387;28;20049;-69
2021/10/05 10:38:28;;;;;;;3.17;1.30;;;;;;;16.71;66.96;99015.88;5056274;28;20040;-69
2021/10/05 10:40:57;;;;;;;5.55;1.60;;;;;;;16.84;67.90;99021.66;5057466;28;20043;-70
2021/10/05 10:43:28;;;;;;;9.73;1.15;;;;;;;16.86;66.92;99023.34;5055707;28;20341;-70
2021/10/05 10:45:59;;;;;;;;;;;;;;;17.05;66.69;99031.19;5043468;28;20049;-70
2021/10/05 10:48:37;;;;;;;5.78;1.58;;;;;;;17.13;65.95;99034.91;5037223;28;19932;-70
2021/10/05 10:51:13;;;;;;;4.20;1.23;;;;;;;17.23;66.02;99036.47;5037257;28;20073;-70
2021/10/05 10:53:43;;;;;;;4.45;1.00;;;;;;;17.04;65.17;99028.66;5037727;28;20380;-70
2021/10/05 10:56:10;;;;;;;3.90;1.10;;;;;;;17.12;65.46;99035.94;5037248;28;20060;-69
2021/10/05 10:58:40;;;;;;;3.88;1.08;;;;;;;17.20;65.97;99042.19;5037140;28;20116;-69
2021/10/05 11:01:16;;;;;;;5.13;1.10;;;;;;;17.40;65.68;99031.13;5036060;28;20057;-69
2021/10/05 11:03:43;;;;;;;3.80;1.30;;;;;;;17.60;65.75;99038.91;5037137;28;20462;-69
2021/10/05 11:06:24;;;;;;;5.07;1.10;;;;;;;17.90;64.52;99026.59;5036983;28;20136;-69
2021/10/05 11:08:58;;;;;;;2.65;0.95;;;;;;;17.62;63.35;99029.63;5052732;28;20045;-71
2021/10/05 11:11:37;;;;;;;5.72;1.00;;;;;;;17.29;64.26;99028.72;5036838;28;20045;-69
2021/10/05 11:14:06;;;;;;;3.08;0.77;;;;;;;17.14;65.34;99021.28;5036978;28;20482;-70
2021/10/05 11:16:35;;;;;;;4.20;1.52;;;;;;;16.95;65.98;99003.50;5036801;28;20070;-69
2021/10/05 11:19:11;;;;;;;9.73;1.30;;;;;;;17.00;66.71;99028.09;5036911;28;20045;-70
2021/10/05 11:21:43;;;;;;;4.57;0.80;;;;;;;16.88;67.47;99011.41;5036922;28;20045;-69
2021/10/05 11:24:12;;;;;;;3.47;0.90;;;;;;;16.87;67.38;99017.78;5036668;28;20045;-69
2021/10/05 11:26:42;;;;;;;8.88;0.90;;;;;;;16.80;67.91;99006.84;5035504;28;20084;-69
2021/10/05 11:29:10;;;;;;;3.70;0.82;;;;;;;16.65;68.84;99001.22;5036440;28;20044;-71
2021/10/05 11:31:45;;;;;;;3.05;0.80;;;;;;;16.63;68.28;98991.59;5036479;28;20343;-71
2021/10/05 11:34:14;;;;;;;6.03;1.10;;;;;;;16.52;69.05;98979.28;5037390;28;20446;-69
2021/10/05 11:36:41;;;;;;;5.60;1.10;;;;;;;16.48;69.30;98977.91;5056432;28;20123;-70
2021/10/05 11:39:24;;;;;;;8.40;1.42;;;;;;;16.45;68.44;98972.84;5055347;28;20154;-70
2021/10/05 11:42:01;;;;;;;3.25;0.80;;;;;;;16.47;68.82;98976.22;5055070;28;20060;-70